Elk City, Kansas
Current Conditions -  °F | °C
As of 9:35 PM on Friday 24 Oct 2014 (Local Time) from KIDP Reporting Station
Haze Haze  
Wind Chill: 18°   Ceiling: Unl
Heat Index: 18°   Visibility: 4mi
Dew Point: 16°   Wind: 7mph
Humidity: 88%   Direction: 190°S
Pressure: 30.02"   Gusts: NA
Location:  37.29°N, 95.91°W
Report Text: KIDP 250235Z AUTO 19006KT 4SM BR CLR 18/16 A3002 RMK AO2
Loading
Personal Weather Stations






























Interactive Weather Map
Tropical Storm Tracking
New forecast layout! Learn more

10-Day Weather Forecast

Advertisements
Track Severe Weather on mobile